sensor_id;sensor_type;location;lat;lon;timestamp;pressure;altitude;pressure_sealevel;temperature;humidity
16821;BME280;8527;49.740;6.604;2024-01-07T00:00:45;99452.88;;;4.17;87.67
16821;BME280;8527;49.740;6.604;2024-01-07T00:05:46;99455.34;;;4.08;88.28
16821;BME280;8527;49.740;6.604;2024-01-07T00:10:45;99457.88;;;4.20;87.77
16821;BME280;8527;49.740;6.604;2024-01-07T00:15:44;99463.59;;;3.94;88.89
16821;BME280;8527;49.740;6.604;2024-01-07T00:20:53;99465.56;;;4.12;88.01
16821;BME280;8527;49.740;6.604;2024-01-07T00:25:52;99469.63;;;4.26;87.21
16821;BME280;8527;49.740;6.604;2024-01-07T00:30:53;99477.31;;;4.07;87.27
16821;BME280;8527;49.740;6.604;2024-01-07T00:35:58;99477.88;;;4.11;86.72
16821;BME280;8527;49.740;6.604;2024-01-07T00:40:57;99485.13;;;3.98;87.28
16821;BME280;8527;49.740;6.604;2024-01-07T00:45:57;99481.03;;;4.05;87.43
16821;BME280;8527;49.740;6.604;2024-01-07T00:50:59;99494.16;;;4.05;87.35
16821;BME280;8527;49.740;6.604;2024-01-07T00:55:57;99491.50;;;3.95;86.58
16821;BME280;8527;49.740;6.604;2024-01-07T01:00:56;99503.31;;;4.20;86.44
16821;BME280;8527;49.740;6.604;2024-01-07T01:05:59;99503.69;;;4.06;86.17
16821;BME280;8527;49.740;6.604;2024-01-07T01:11:00;99502.44;;;4.10;86.00
16821;BME280;8527;49.740;6.604;2024-01-07T01:16:11;99514.75;;;4.10;86.28
16821;BME280;8527;49.740;6.604;2024-01-07T01:21:12;99512.03;;;4.11;86.36
16821;BME280;8527;49.740;6.604;2024-01-07T01:26:10;99516.78;;;3.96;86.06
16821;BME280;8527;49.740;6.604;2024-01-07T01:31:12;99521.94;;;3.76;86.91
16821;BME280;8527;49.740;6.604;2024-01-07T01:36:17;99523.28;;;3.49;87.33
16821;BME280;8527;49.740;6.604;2024-01-07T01:41:15;99526.44;;;3.43;88.57
16821;BME280;8527;49.740;6.604;2024-01-07T01:46:21;99527.31;;;3.54;88.03
16821;BME280;8527;49.740;6.604;2024-01-07T01:51:45;99525.88;;;3.40;88.82
16821;BME280;8527;49.740;6.604;2024-01-07T01:56:51;99542.34;;;3.51;88.09
16821;BME280;8527;49.740;6.604;2024-01-07T02:01:51;99537.81;;;3.54;88.29
16821;BME280;8527;49.740;6.604;2024-01-07T02:06:53;99535.59;;;3.49;88.12
16821;BME280;8527;49.740;6.604;2024-01-07T02:12:01;99535.59;;;3.49;88.36
16821;BME280;8527;49.740;6.604;2024-01-07T02:17:08;99541.22;;;3.44;88.25
16821;BME280;8527;49.740;6.604;2024-01-07T02:22:10;99546.69;;;3.41;88.32
16821;BME280;8527;49.740;6.604;2024-01-07T02:27:20;99535.13;;;3.44;88.30
16821;BME280;8527;49.740;6.604;2024-01-07T02:32:34;99549.56;;;3.38;88.50
16821;BME280;8527;49.740;6.604;2024-01-07T02:37:33;99544.00;;;3.52;88.60
16821;BME280;8527;49.740;6.604;2024-01-07T02:42:34;99534.31;;;3.64;87.72
16821;BME280;8527;49.740;6.604;2024-01-07T02:47:33;99530.84;;;3.64;87.85
16821;BME280;8527;49.740;6.604;2024-01-07T02:52:31;99544.72;;;3.33;87.84
16821;BME280;8527;49.740;6.604;2024-01-07T02:57:30;99538.72;;;3.43;88.07
16821;BME280;8527;49.740;6.604;2024-01-07T03:02:31;99539.28;;;3.46;87.86
16821;BME280;8527;49.740;6.604;2024-01-07T03:07:29;99543.47;;;3.49;88.46
16821;BME280;8527;49.740;6.604;2024-01-07T03:12:33;99553.75;;;3.41;88.77
16821;BME280;8527;49.740;6.604;2024-01-07T03:17:34;99557.97;;;3.32;88.40
16821;BME280;8527;49.740;6.604;2024-01-07T03:22:36;99563.97;;;3.44;88.13
16821;BME280;8527;49.740;6.604;2024-01-07T03:27:34;99557.97;;;3.32;88.02
16821;BME280;8527;49.740;6.604;2024-01-07T03:32:38;99552.16;;;3.49;88.35
16821;BME280;8527;49.740;6.604;2024-01-07T03:37:36;99561.56;;;3.31;88.52
16821;BME280;8527;49.740;6.604;2024-01-07T03:42:41;99569.09;;;3.24;88.86
16821;BME280;8527;49.740;6.604;2024-01-07T03:47:42;99570.47;;;3.07;89.35
16821;BME280;8527;49.740;6.604;2024-01-07T03:52:50;99567.75;;;3.30;89.30
16821;BME280;8527;49.740;6.604;2024-01-07T03:57:49;99569.66;;;3.28;88.91
16821;BME280;8527;49.740;6.604;2024-01-07T04:02:50;99574.28;;;3.35;88.69
16821;BME280;8527;49.740;6.604;2024-01-07T04:07:51;99574.13;;;3.37;88.99
16821;BME280;8527;49.740;6.604;2024-01-07T04:12:53;99582.69;;;3.39;88.46
16821;BME280;8527;49.740;6.604;2024-01-07T04:17:54;99583.06;;;3.34;88.96
16821;BME280;8527;49.740;6.604;2024-01-07T04:22:54;99594.97;;;3.17;89.50
16821;BME280;8527;49.740;6.604;2024-01-07T04:27:53;99593.09;;;3.08;90.04
16821;BME280;8527;49.740;6.604;2024-01-07T04:32:57;99590.69;;;3.16;89.46
16821;BME280;8527;49.740;6.604;2024-01-07T04:38:07;99604.56;;;3.28;89.36
16821;BME280;8527;49.740;6.604;2024-01-07T04:43:09;99613.53;;;3.14;89.29
16821;BME280;8527;49.740;6.604;2024-01-07T04:48:10;99604.13;;;3.23;89.92
16821;BME280;8527;49.740;6.604;2024-01-07T04:53:11;99614.88;;;3.41;88.93
16821;BME280;8527;49.740;6.604;2024-01-07T04:58:11;99611.69;;;3.37;89.07
16821;BME280;8527;49.740;6.604;2024-01-07T05:03:12;99622.28;;;3.36;89.22
16821;BME280;8527;49.740;6.604;2024-01-07T05:08:10;99623.78;;;3.29;89.29
16821;BME280;8527;49.740;6.604;2024-01-07T05:13:19;99630.44;;;3.21;89.80
16821;BME280;8527;49.740;6.604;2024-01-07T05:18:20;99634.31;;;3.06;91.03
16821;BME280;8527;49.740;6.604;2024-01-07T05:23:19;99635.47;;;3.13;90.80
16821;BME280;8527;49.740;6.604;2024-01-07T05:28:20;99652.88;;;3.03;90.75
16821;BME280;8527;49.740;6.604;2024-01-07T05:33:25;99659.59;;;2.95;91.44
16821;BME280;8527;49.740;6.604;2024-01-07T05:38:23;99651.00;;;2.93;91.97
16821;BME280;8527;49.740;6.604;2024-01-07T05:43:24;99646.22;;;2.99;91.23
16821;BME280;8527;49.740;6.604;2024-01-07T05:48:25;99653.63;;;2.93;91.96
16821;BME280;8527;49.740;6.604;2024-01-07T05:53:30;99657.31;;;2.91;92.36
16821;BME280;8527;49.740;6.604;2024-01-07T05:58:36;99655.19;;;2.85;93.10
16821;BME280;8527;49.740;6.604;2024-01-07T06:03:37;99663.63;;;2.88;93.03
16821;BME280;8527;49.740;6.604;2024-01-07T06:08:35;99663.41;;;2.80;93.59
16821;BME280;8527;49.740;6.604;2024-01-07T06:13:34;99672.00;;;2.82;94.24
16821;BME280;8527;49.740;6.604;2024-01-07T06:18:33;99676.72;;;2.77;94.76
16821;BME280;8527;49.740;6.604;2024-01-07T06:23:37;99674.81;;;2.90;94.68
16821;BME280;8527;49.740;6.604;2024-01-07T06:28:38;99682.56;;;2.80;95.27
16821;BME280;8527;49.740;6.604;2024-01-07T06:33:39;99688.75;;;2.91;95.03
16821;BME280;8527;49.740;6.604;2024-01-07T06:38:46;99701.25;;;2.87;94.72
16821;BME280;8527;49.740;6.604;2024-01-07T06:43:48;99707.81;;;2.81;94.98
16821;BME280;8527;49.740;6.604;2024-01-07T06:48:49;99707.00;;;2.92;94.57
16821;BME280;8527;49.740;6.604;2024-01-07T06:53:50;99713.75;;;2.95;94.42
16821;BME280;8527;49.740;6.604;2024-01-07T06:58:48;99712.94;;;2.94;94.35
16821;BME280;8527;49.740;6.604;2024-01-07T07:03:53;99713.53;;;2.98;94.47
16821;BME280;8527;49.740;6.604;2024-01-07T07:08:53;99724.25;;;2.95;93.96
16821;BME280;8527;49.740;6.604;2024-01-07T07:13:52;99730.78;;;3.01;94.00
16821;BME280;8527;49.740;6.604;2024-01-07T07:18:50;99735.22;;;3.00;93.48
16821;BME280;8527;49.740;6.604;2024-01-07T07:23:54;99742.22;;;3.00;93.38
16821;BME280;8527;49.740;6.604;2024-01-07T07:28:52;99734.72;;;3.06;93.75
16821;BME280;8527;49.740;6.604;2024-01-07T07:33:51;99744.63;;;2.91;93.27
16821;BME280;8527;49.740;6.604;2024-01-07T07:38:55;99745.00;;;2.98;93.11
16821;BME280;8527;49.740;6.604;2024-01-07T07:43:55;99751.91;;;3.11;92.37
16821;BME280;8527;49.740;6.604;2024-01-07T07:48:54;99761.44;;;3.12;92.00
16821;BME280;8527;49.740;6.604;2024-01-07T07:53:57;99768.94;;;3.16;91.35
16821;BME280;8527;49.740;6.604;2024-01-07T07:58:56;99766.78;;;3.10;91.47
16821;BME280;8527;49.740;6.604;2024-01-07T08:03:54;99775.44;;;3.22;91.49
16821;BME280;8527;49.740;6.604;2024-01-07T08:08:59;99781.78;;;3.42;91.40
16821;BME280;8527;49.740;6.604;2024-01-07T08:13:57;99788.69;;;3.43;89.77
16821;BME280;8527;49.740;6.604;2024-01-07T08:18:57;99788.81;;;3.30;90.08
16821;BME280;8527;49.740;6.604;2024-01-07T08:24:00;99793.09;;;3.43;89.50
16821;BME280;8527;49.740;6.604;2024-01-07T08:28:59;99794.88;;;3.42;89.96
16821;BME280;8527;49.740;6.604;2024-01-07T08:33:58;99800.50;;;3.37;89.61
16821;BME280;8527;49.740;6.604;2024-01-07T08:39:01;99807.03;;;3.43;89.53
16821;BME280;8527;49.740;6.604;2024-01-07T08:44:05;99804.53;;;3.30;89.86
16821;BME280;8527;49.740;6.604;2024-01-07T08:49:04;99815.03;;;3.19;89.64
16821;BME280;8527;49.740;6.604;2024-01-07T08:54:05;99820.97;;;3.21;89.89
16821;BME280;8527;49.740;6.604;2024-01-07T08:59:03;99825.41;;;3.32;89.53
16821;BME280;8527;49.740;6.604;2024-01-07T09:04:01;99830.28;;;3.36;89.23
16821;BME280;8527;49.740;6.604;2024-01-07T09:09:05;99834.69;;;3.36;88.94
16821;BME280;8527;49.740;6.604;2024-01-07T09:14:04;99847.56;;;3.39;88.43
16821;BME280;8527;49.740;6.604;2024-01-07T09:19:02;99851.72;;;3.42;88.13
16821;BME280;8527;49.740;6.604;2024-01-07T09:24:01;99858.19;;;3.37;87.65
16821;BME280;8527;49.740;6.604;2024-01-07T09:29:01;99859.59;;;3.30;88.02
16821;BME280;8527;49.740;6.604;2024-01-07T09:34:00;99860.09;;;3.35;87.92
16821;BME280;8527;49.740;6.604;2024-01-07T09:38:59;99864.97;;;3.29;87.56
16821;BME280;8527;49.740;6.604;2024-01-07T09:44:03;99875.47;;;3.29;87.70
16821;BME280;8527;49.740;6.604;2024-01-07T09:49:07;99880.22;;;3.35;87.64
16821;BME280;8527;49.740;6.604;2024-01-07T09:54:12;99884.63;;;3.46;87.89
16821;BME280;8527;49.740;6.604;2024-01-07T09:59:19;99885.84;;;3.53;87.67
16821;BME280;8527;49.740;6.604;2024-01-07T10:04:21;99906.91;;;3.17;88.89
16821;BME280;8527;49.740;6.604;2024-01-07T10:09:28;99889.28;;;3.19;89.34
16821;BME280;8527;49.740;6.604;2024-01-07T10:14:30;99890.94;;;3.20;89.23
16821;BME280;8527;49.740;6.604;2024-01-07T10:19:28;99898.47;;;3.25;89.61
16821;BME280;8527;49.740;6.604;2024-01-07T10:24:34;99910.84;;;3.12;90.31
16821;BME280;8527;49.740;6.604;2024-01-07T10:29:39;99900.34;;;3.12;91.05
16821;BME280;8527;49.740;6.604;2024-01-07T10:34:37;99899.75;;;3.19;90.67
16821;BME280;8527;49.740;6.604;2024-01-07T10:39:37;99902.50;;;3.18;91.00
16821;BME280;8527;49.740;6.604;2024-01-07T10:44:40;99898.81;;;3.20;90.55
16821;BME280;8527;49.740;6.604;2024-01-07T10:49:40;99898.56;;;3.23;91.12
16821;BME280;8527;49.740;6.604;2024-01-07T10:54:43;99898.91;;;3.19;91.11
16821;BME280;8527;49.740;6.604;2024-01-07T10:59:45;99905.25;;;3.16;91.16
16821;BME280;8527;49.740;6.604;2024-01-07T11:04:51;99910.59;;;3.15;91.70
16821;BME280;8527;49.740;6.604;2024-01-07T11:09:56;99902.50;;;3.29;91.29
16821;BME280;8527;49.740;6.604;2024-01-07T11:15:03;99905.38;;;3.26;91.59
16821;BME280;8527;49.740;6.604;2024-01-07T11:20:07;99912.19;;;3.29;91.35
16821;BME280;8527;49.740;6.604;2024-01-07T11:25:30;99901.31;;;3.33;91.47
16821;BME280;8527;49.740;6.604;2024-01-07T11:30:38;99918.72;;;3.23;92.59
16821;BME280;8527;49.740;6.604;2024-01-07T11:35:54;99923.38;;;3.31;92.98
16821;BME280;8527;49.740;6.604;2024-01-07T11:40:55;99925.59;;;3.13;93.50
16821;BME280;8527;49.740;6.604;2024-01-07T11:45:57;99916.44;;;3.18;94.09
16821;BME280;8527;49.740;6.604;2024-01-07T11:50:55;99931.47;;;3.16;94.74
16821;BME280;8527;49.740;6.604;2024-01-07T11:55:53;99920.84;;;3.29;94.70
16821;BME280;8527;49.740;6.604;2024-01-07T12:00:52;99918.84;;;3.33;94.68
16821;BME280;8527;49.740;6.604;2024-01-07T12:05:55;99924.34;;;3.30;93.94
16821;BME280;8527;49.740;6.604;2024-01-07T12:10:54;99918.69;;;3.12;94.31
16821;BME280;8527;49.740;6.604;2024-01-07T12:15:53;99916.09;;;3.23;94.39
16821;BME280;8527;49.740;6.604;2024-01-07T12:20:59;99913.47;;;3.12;94.21
16821;BME280;8527;49.740;6.604;2024-01-07T12:26:07;99916.06;;;3.12;95.47
16821;BME280;8527;49.740;6.604;2024-01-07T12:31:06;99924.44;;;3.28;96.51
16821;BME280;8527;49.740;6.604;2024-01-07T12:36:08;99921.47;;;3.33;94.60
16821;BME280;8527;49.740;6.604;2024-01-07T12:41:09;99920.72;;;3.19;95.40
16821;BME280;8527;49.740;6.604;2024-01-07T12:46:08;99940.78;;;2.96;96.18
16821;BME280;8527;49.740;6.604;2024-01-07T12:51:08;99929.84;;;2.91;97.62
16821;BME280;8527;49.740;6.604;2024-01-07T12:56:09;99922.69;;;2.93;97.55
16821;BME280;8527;49.740;6.604;2024-01-07T13:01:14;99927.69;;;2.96;97.51
16821;BME280;8527;49.740;6.604;2024-01-07T13:06:15;99932.59;;;3.01;97.37
16821;BME280;8527;49.740;6.604;2024-01-07T13:11:13;99949.16;;;3.01;97.16
16821;BME280;8527;49.740;6.604;2024-01-07T13:16:13;99950.47;;;2.95;98.21
16821;BME280;8527;49.740;6.604;2024-01-07T13:21:12;99959.75;;;3.00;97.76
16821;BME280;8527;49.740;6.604;2024-01-07T13:26:13;99953.91;;;2.96;97.04
16821;BME280;8527;49.740;6.604;2024-01-07T13:31:11;99961.91;;;2.94;96.97
16821;BME280;8527;49.740;6.604;2024-01-07T13:36:10;99959.28;;;2.94;96.18
16821;BME280;8527;49.740;6.604;2024-01-07T13:41:14;99961.38;;;2.89;96.72
16821;BME280;8527;49.740;6.604;2024-01-07T13:46:13;99967.22;;;2.93;96.44
16821;BME280;8527;49.740;6.604;2024-01-07T13:51:11;99964.22;;;2.86;96.80
16821;BME280;8527;49.740;6.604;2024-01-07T13:56:16;99971.03;;;2.89;96.41
16821;BME280;8527;49.740;6.604;2024-01-07T14:01:15;99972.22;;;2.85;96.74
16821;BME280;8527;49.740;6.604;2024-01-07T14:06:14;99984.97;;;2.89;96.32
16821;BME280;8527;49.740;6.604;2024-01-07T14:11:15;99987.47;;;2.91;96.25
16821;BME280;8527;49.740;6.604;2024-01-07T14:16:14;99999.41;;;2.95;96.24
16821;BME280;8527;49.740;6.604;2024-01-07T14:21:12;99999.72;;;2.90;96.85
16821;BME280;8527;49.740;6.604;2024-01-07T14:26:11;100004.06;;;2.91;96.37
16821;BME280;8527;49.740;6.604;2024-01-07T14:31:12;100009.63;;;2.87;96.74
16821;BME280;8527;49.740;6.604;2024-01-07T14:36:11;100011.16;;;2.89;96.96
16821;BME280;8527;49.740;6.604;2024-01-07T14:41:12;100026.16;;;2.87;97.13
16821;BME280;8527;49.740;6.604;2024-01-07T14:46:12;100033.38;;;2.97;96.79
16821;BME280;8527;49.740;6.604;2024-01-07T14:51:11;100041.22;;;2.97;95.25
16821;BME280;8527;49.740;6.604;2024-01-07T14:56:12;100039.94;;;2.78;95.16
16821;BME280;8527;49.740;6.604;2024-01-07T15:01:13;100042.69;;;2.76;95.36
16821;BME280;8527;49.740;6.604;2024-01-07T15:06:11;100048.34;;;2.70;95.25
16821;BME280;8527;49.740;6.604;2024-01-07T15:11:10;100059.03;;;2.80;93.88
16821;BME280;8527;49.740;6.604;2024-01-07T15:16:14;100066.75;;;2.81;93.38
16821;BME280;8527;49.740;6.604;2024-01-07T15:21:12;100067.69;;;2.80;92.19
16821;BME280;8527;49.740;6.604;2024-01-07T15:26:11;100085.41;;;2.77;91.37
16821;BME280;8527;49.740;6.604;2024-01-07T15:31:09;100074.50;;;2.83;90.24
16821;BME280;8527;49.740;6.604;2024-01-07T15:36:11;100091.91;;;2.84;89.34
16821;BME280;8527;49.740;6.604;2024-01-07T15:41:09;100086.88;;;2.81;87.84
16821;BME280;8527;49.740;6.604;2024-01-07T15:46:11;100083.72;;;2.89;87.85
16821;BME280;8527;49.740;6.604;2024-01-07T15:51:12;100091.69;;;2.87;87.32
16821;BME280;8527;49.740;6.604;2024-01-07T15:56:17;100098.31;;;2.80;86.73
16821;BME280;8527;49.740;6.604;2024-01-07T16:01:15;100099.84;;;2.83;86.34
16821;BME280;8527;49.740;6.604;2024-01-07T16:06:16;100114.84;;;2.80;86.35
16821;BME280;8527;49.740;6.604;2024-01-07T16:11:15;100100.63;;;2.85;85.07
16821;BME280;8527;49.740;6.604;2024-01-07T16:16:14;100103.50;;;2.93;84.94
16821;BME280;8527;49.740;6.604;2024-01-07T16:21:12;100112.00;;;2.84;85.48
16821;BME280;8527;49.740;6.604;2024-01-07T16:26:14;100126.50;;;2.76;85.50
16821;BME280;8527;49.740;6.604;2024-01-07T16:31:15;100132.06;;;2.85;85.72
16821;BME280;8527;49.740;6.604;2024-01-07T16:36:14;100134.78;;;2.70;84.75
16821;BME280;8527;49.740;6.604;2024-01-07T16:41:15;100135.66;;;2.58;85.40
16821;BME280;8527;49.740;6.604;2024-01-07T16:46:15;100139.75;;;2.62;84.94
16821;BME280;8527;49.740;6.604;2024-01-07T16:51:13;100158.41;;;2.57;84.54
16821;BME280;8527;49.740;6.604;2024-01-07T16:56:11;100159.66;;;2.51;84.03
16821;BME280;8527;49.740;6.604;2024-01-07T17:01:13;100157.34;;;2.60;83.58
16821;BME280;8527;49.740;6.604;2024-01-07T17:06:12;100162.59;;;2.47;83.08
16821;BME280;8527;49.740;6.604;2024-01-07T17:11:23;100169.00;;;2.43;81.85
16821;BME280;8527;49.740;6.604;2024-01-07T17:16:24;100175.59;;;2.35;80.26
16821;BME280;8527;49.740;6.604;2024-01-07T17:21:23;100179.25;;;2.33;80.23
16821;BME280;8527;49.740;6.604;2024-01-07T17:26:22;100175.78;;;2.19;78.73
16821;BME280;8527;49.740;6.604;2024-01-07T17:31:24;100178.69;;;2.15;78.69
16821;BME280;8527;49.740;6.604;2024-01-07T17:36:25;100190.13;;;2.14;77.57
16821;BME280;8527;49.740;6.604;2024-01-07T17:41:35;100192.44;;;2.05;77.41
16821;BME280;8527;49.740;6.604;2024-01-07T17:46:45;100225.81;;;2.02;77.23
16821;BME280;8527;49.740;6.604;2024-01-07T17:51:43;100214.69;;;1.85;76.99
16821;BME280;8527;49.740;6.604;2024-01-07T17:56:49;100218.72;;;1.76;76.77
16821;BME280;8527;49.740;6.604;2024-01-07T18:01:51;100237.94;;;1.62;77.02
16821;BME280;8527;49.740;6.604;2024-01-07T18:06:50;100234.97;;;1.54;77.08
16821;BME280;8527;49.740;6.604;2024-01-07T18:11:48;100246.75;;;1.47;77.36
16821;BME280;8527;49.740;6.604;2024-01-07T18:16:47;100257.59;;;1.40;77.30
16821;BME280;8527;49.740;6.604;2024-01-07T18:21:48;100252.66;;;1.36;77.92
16821;BME280;8527;49.740;6.604;2024-01-07T18:26:49;100274.31;;;1.23;78.14
16821;BME280;8527;49.740;6.604;2024-01-07T18:31:51;100273.34;;;0.97;76.93
16821;BME280;8527;49.740;6.604;2024-01-07T18:36:59;100272.59;;;0.95;77.30
16821;BME280;8527;49.740;6.604;2024-01-07T18:42:07;100296.38;;;0.90;77.43
16821;BME280;8527;49.740;6.604;2024-01-07T18:47:05;100301.56;;;0.76;78.26
16821;BME280;8527;49.740;6.604;2024-01-07T18:52:07;100311.72;;;0.66;78.62
16821;BME280;8527;49.740;6.604;2024-01-07T18:57:08;100312.84;;;0.62;77.62
16821;BME280;8527;49.740;6.604;2024-01-07T19:02:07;100326.22;;;0.55;77.01
16821;BME280;8527;49.740;6.604;2024-01-07T19:07:11;100328.91;;;0.39;76.35
16821;BME280;8527;49.740;6.604;2024-01-07T19:12:12;100340.31;;;0.22;75.18
16821;BME280;8527;49.740;6.604;2024-01-07T19:17:12;100352.75;;;0.17;74.60
16821;BME280;8527;49.740;6.604;2024-01-07T19:22:14;100349.00;;;0.07;73.50
16821;BME280;8527;49.740;6.604;2024-01-07T19:27:12;100347.91;;;0.11;73.26
16821;BME280;8527;49.740;6.604;2024-01-07T19:32:13;100365.50;;;-0.09;72.69
16821;BME280;8527;49.740;6.604;2024-01-07T19:37:16;100363.97;;;-0.13;72.54
16821;BME280;8527;49.740;6.604;2024-01-07T19:42:15;100369.44;;;-0.18;72.05
16821;BME280;8527;49.740;6.604;2024-01-07T19:47:16;100349.09;;;-0.27;72.91
16821;BME280;8527;49.740;6.604;2024-01-07T19:52:17;100406.69;;;-0.32;72.64
16821;BME280;8527;49.740;6.604;2024-01-07T19:57:16;100376.22;;;-0.47;73.00
16821;BME280;8527;49.740;6.604;2024-01-07T20:02:14;100393.53;;;-0.46;73.65
16821;BME280;8527;49.740;6.604;2024-01-07T20:07:13;100393.19;;;-0.56;72.80
16821;BME280;8527;49.740;6.604;2024-01-07T20:12:20;100398.81;;;-0.64;72.50
16821;BME280;8527;49.740;6.604;2024-01-07T20:17:18;100400.03;;;-0.71;72.03
16821;BME280;8527;49.740;6.604;2024-01-07T20:22:24;100399.22;;;-0.72;71.95
16821;BME280;8527;49.740;6.604;2024-01-07T20:27:26;100406.19;;;-0.72;72.02
16821;BME280;8527;49.740;6.604;2024-01-07T20:32:25;100409.00;;;-0.77;71.79
16821;BME280;8527;49.740;6.604;2024-01-07T20:37:26;100409.19;;;-0.80;71.04
16821;BME280;8527;49.740;6.604;2024-01-07T20:42:27;100413.16;;;-0.90;70.77
16821;BME280;8527;49.740;6.604;2024-01-07T20:47:30;100424.22;;;-0.85;70.60
16821;BME280;8527;49.740;6.604;2024-01-07T20:52:28;100442.63;;;-0.88;70.68
16821;BME280;8527;49.740;6.604;2024-01-07T20:57:30;100416.56;;;-0.88;70.26
16821;BME280;8527;49.740;6.604;2024-01-07T21:02:32;100419.84;;;-0.85;70.33
16821;BME280;8527;49.740;6.604;2024-01-07T21:07:30;100421.84;;;-0.90;69.91
16821;BME280;8527;49.740;6.604;2024-01-07T21:12:31;100425.28;;;-0.89;69.97
16821;BME280;8527;49.740;6.604;2024-01-07T21:17:30;100423.75;;;-0.93;70.19
16821;BME280;8527;49.740;6.604;2024-01-07T21:22:30;100450.34;;;-0.87;70.71
16821;BME280;8527;49.740;6.604;2024-01-07T21:27:31;100436.78;;;-0.93;70.81
16821;BME280;8527;49.740;6.604;2024-01-07T21:32:30;100443.66;;;-0.92;70.59
16821;BME280;8527;49.740;6.604;2024-01-07T21:37:29;100448.34;;;-0.99;70.85
16821;BME280;8527;49.740;6.604;2024-01-07T21:42:33;100444.06;;;-1.00;70.16
16821;BME280;8527;49.740;6.604;2024-01-07T21:47:33;100444.00;;;-0.98;70.23
16821;BME280;8527;49.740;6.604;2024-01-07T21:52:31;100450.78;;;-0.96;70.17
16821;BME280;8527;49.740;6.604;2024-01-07T21:57:32;100446.28;;;-0.92;70.63
16821;BME280;8527;49.740;6.604;2024-01-07T22:02:31;100447.41;;;-0.98;70.04
16821;BME280;8527;49.740;6.604;2024-01-07T22:07:29;100448.28;;;-0.97;70.44
16821;BME280;8527;49.740;6.604;2024-01-07T22:12:28;100451.56;;;-0.94;70.51
16821;BME280;8527;49.740;6.604;2024-01-07T22:17:29;100449.19;;;-0.98;69.60
16821;BME280;8527;49.740;6.604;2024-01-07T22:22:29;100458.69;;;-0.97;69.61
16821;BME280;8527;49.740;6.604;2024-01-07T22:27:29;100457.94;;;-1.00;69.35
16821;BME280;8527;49.740;6.604;2024-01-07T22:32:32;100477.00;;;-0.99;69.66
16821;BME280;8527;49.740;6.604;2024-01-07T22:37:30;100486.56;;;-1.00;69.43
16821;BME280;8527;49.740;6.604;2024-01-07T22:42:29;100483.97;;;-1.00;69.49
16821;BME280;8527;49.740;6.604;2024-01-07T22:47:27;100476.06;;;-0.98;69.58
16821;BME280;8527;49.740;6.604;2024-01-07T22:52:28;100465.81;;;-1.01;70.19
16821;BME280;8527;49.740;6.604;2024-01-07T22:57:29;100479.06;;;-1.06;69.85
16821;BME280;8527;49.740;6.604;2024-01-07T23:02:28;100474.16;;;-0.94;70.64
16821;BME280;8527;49.740;6.604;2024-01-07T23:07:29;100473.47;;;-0.98;70.35
16821;BME280;8527;49.740;6.604;2024-01-07T23:12:29;100477.91;;;-1.00;70.19
16821;BME280;8527;49.740;6.604;2024-01-07T23:17:36;100469.13;;;-0.97;70.01
16821;BME280;8527;49.740;6.604;2024-01-07T23:22:38;100484.81;;;-0.99;69.93
16821;BME280;8527;49.740;6.604;2024-01-07T23:27:43;100482.13;;;-0.97;69.93
16821;BME280;8527;49.740;6.604;2024-01-07T23:32:41;100481.06;;;-0.93;69.79
16821;BME280;8527;49.740;6.604;2024-01-07T23:37:45;100457.84;;;-0.98;69.03
16821;BME280;8527;49.740;6.604;2024-01-07T23:42:47;100457.69;;;-0.95;69.22
16821;BME280;8527;49.740;6.604;2024-01-07T23:47:46;100461.13;;;-0.94;68.86
16821;BME280;8527;49.740;6.604;2024-01-07T23:52:47;100467.34;;;-0.97;68.67
16821;BME280;8527;49.740;6.604;2024-01-07T23:57:52;100469.72;;;-0.92;68.70
